sensor_id;sensor_type;location;lat;lon;timestamp;pressure;altitude;pressure_sealevel;temperature;humidity
6853;BME280;3465;42.144;24.722;2023-11-19T00:00:29;48918.13;;;-141.38;64.65
6853;BME280;3465;42.144;24.722;2023-11-19T00:02:54;48906.44;;;-141.38;64.82
6853;BME280;3465;42.144;24.722;2023-11-19T00:05:20;48922.03;;;-141.38;64.61
6853;BME280;3465;42.144;24.722;2023-11-19T00:07:45;48931.81;;;-141.38;64.95
6853;BME280;3465;42.144;24.722;2023-11-19T00:10:13;48925.94;;;-141.38;64.74
6853;BME280;3465;42.144;24.722;2023-11-19T00:12:41;48935.72;;;-141.38;64.67
6853;BME280;3465;42.144;24.722;2023-11-19T00:15:07;48910.34;;;-141.38;64.53
6853;BME280;3465;42.144;24.722;2023-11-19T00:17:42;48933.75;;;-141.38;65.12
6853;BME280;3465;42.144;24.722;2023-11-19T00:20:10;48929.84;;;-141.38;65.20
6853;BME280;3465;42.144;24.722;2023-11-19T00:22:36;48949.38;;;-141.38;65.54
6853;BME280;3465;42.144;24.722;2023-11-19T00:25:02;48924.00;;;-141.38;65.88
6853;BME280;3465;42.144;24.722;2023-11-19T00:27:28;48931.81;;;-141.38;65.68
6853;BME280;3465;42.144;24.722;2023-11-19T00:29:54;48920.09;;;-141.38;65.88
6853;BME280;3465;42.144;24.722;2023-11-19T00:32:19;48947.41;;;-141.38;65.85
6853;BME280;3465;42.144;24.722;2023-11-19T00:34:45;48937.66;;;-141.38;65.82
6853;BME280;3465;42.144;24.722;2023-11-19T00:37:12;48933.75;;;-141.38;65.92
6853;BME280;3465;42.144;24.722;2023-11-19T00:39:38;49203.13;;;-141.38;65.68
6853;BME280;3465;42.144;24.722;2023-11-19T00:42:03;48945.47;;;-141.38;65.62
6853;BME280;3465;42.144;24.722;2023-11-19T00:44:29;48918.13;;;-141.38;65.47
6853;BME280;3465;42.144;24.722;2023-11-19T00:46:54;48957.19;;;-141.38;65.33
6853;BME280;3465;42.144;24.722;2023-11-19T00:49:20;48937.66;;;-141.38;65.11
6853;BME280;3465;42.144;24.722;2023-11-19T00:51:45;48937.66;;;-141.38;65.48
6853;BME280;3465;42.144;24.722;2023-11-19T00:54:10;48939.63;;;-141.38;65.54
6853;BME280;3465;42.144;24.722;2023-11-19T00:56:36;48927.91;;;-141.38;65.30
6853;BME280;3465;42.144;24.722;2023-11-19T00:59:02;48961.09;;;-141.38;65.51
6853;BME280;3465;42.144;24.722;2023-11-19T01:01:29;49009.88;;;-141.38;65.85
6853;BME280;3465;42.144;24.722;2023-11-19T01:03:55;48941.56;;;-141.38;66.03
6853;BME280;3465;42.144;24.722;2023-11-19T01:06:31;48949.38;;;-141.38;66.47
6853;BME280;3465;42.144;24.722;2023-11-19T01:08:58;48941.56;;;-141.38;65.86
6853;BME280;3465;42.144;24.722;2023-11-19T01:11:25;48939.63;;;-141.38;66.30
6853;BME280;3465;42.144;24.722;2023-11-19T01:13:51;48966.94;;;-141.38;66.81
6853;BME280;3465;42.144;24.722;2023-11-19T01:16:17;48953.28;;;-141.38;66.47
6853;BME280;3465;42.144;24.722;2023-11-19T01:18:44;48918.13;;;-141.38;66.93
6853;BME280;3465;42.144;24.722;2023-11-19T01:21:09;48970.84;;;-141.38;66.95
6853;BME280;3465;42.144;24.722;2023-11-19T01:23:35;48922.03;;;-141.38;66.91
6853;BME280;3465;42.144;24.722;2023-11-19T01:26:02;48924.00;;;-141.38;66.64
6853;BME280;3465;42.144;24.722;2023-11-19T01:28:27;48959.13;;;-141.38;66.31
6853;BME280;3465;42.144;24.722;2023-11-19T01:30:53;48964.97;;;-141.38;66.83
6853;BME280;3465;42.144;24.722;2023-11-19T01:33:18;48955.22;;;-141.38;66.65
6853;BME280;3465;42.144;24.722;2023-11-19T01:35:44;48929.84;;;-141.38;66.48
6853;BME280;3465;42.144;24.722;2023-11-19T01:38:09;48949.38;;;-141.38;66.56
6853;BME280;3465;42.144;24.722;2023-11-19T01:40:36;48953.28;;;-141.38;66.63
6853;BME280;3465;42.144;24.722;2023-11-19T01:43:02;48953.28;;;-141.38;66.56
6853;BME280;3465;42.144;24.722;2023-11-19T01:45:28;48947.41;;;-141.38;66.67
6853;BME280;3465;42.144;24.722;2023-11-19T01:47:55;48957.19;;;-141.38;66.62
6853;BME280;3465;42.144;24.722;2023-11-19T01:50:21;48933.75;;;-141.38;67.01
6853;BME280;3465;42.144;24.722;2023-11-19T01:52:48;48961.09;;;-141.38;66.38
6853;BME280;3465;42.144;24.722;2023-11-19T01:55:13;48963.03;;;-141.38;66.91
6853;BME280;3465;42.144;24.722;2023-11-19T01:57:39;48945.47;;;-141.38;67.04
6853;BME280;3465;42.144;24.722;2023-11-19T02:00:07;48947.41;;;-141.38;67.08
6853;BME280;3465;42.144;24.722;2023-11-19T02:02:36;48941.56;;;-141.38;66.75
6853;BME280;3465;42.144;24.722;2023-11-19T02:05:02;48963.03;;;-141.38;66.79
6853;BME280;3465;42.144;24.722;2023-11-19T02:07:28;48933.75;;;-141.38;66.49
6853;BME280;3465;42.144;24.722;2023-11-19T02:09:54;48949.38;;;-141.38;66.93
6853;BME280;3465;42.144;24.722;2023-11-19T02:12:19;48947.41;;;-141.38;67.20
6853;BME280;3465;42.144;24.722;2023-11-19T02:14:45;48976.69;;;-141.38;67.09
6853;BME280;3465;42.144;24.722;2023-11-19T02:17:27;48949.38;;;-141.38;66.84
6853;BME280;3465;42.144;24.722;2023-11-19T02:19:52;48957.19;;;-141.38;67.00
6853;BME280;3465;42.144;24.722;2023-11-19T02:22:18;48949.38;;;-141.38;66.94
6853;BME280;3465;42.144;24.722;2023-11-19T02:24:45;48941.56;;;-141.38;67.01
6853;BME280;3465;42.144;24.722;2023-11-19T02:27:21;48951.31;;;-141.38;67.46
6853;BME280;3465;42.144;24.722;2023-11-19T02:29:51;48945.47;;;-141.38;67.20
6853;BME280;3465;42.144;24.722;2023-11-19T02:32:17;48961.09;;;-141.38;67.21
6853;BME280;3465;42.144;24.722;2023-11-19T02:34:42;48957.19;;;-141.38;67.25
6853;BME280;3465;42.144;24.722;2023-11-19T02:37:07;48953.28;;;-141.38;67.24
6853;BME280;3465;42.144;24.722;2023-11-19T02:39:33;48986.47;;;-141.38;67.24
6853;BME280;3465;42.144;24.722;2023-11-19T02:41:59;48980.59;;;-141.38;67.31
6853;BME280;3465;42.144;24.722;2023-11-19T02:44:25;48896.66;;;-141.38;67.04
6853;BME280;3465;42.144;24.722;2023-11-19T02:46:53;48949.38;;;-141.38;67.15
6853;BME280;3465;42.144;24.722;2023-11-19T02:49:19;48972.78;;;-141.38;67.15
6853;BME280;3465;42.144;24.722;2023-11-19T02:51:44;48972.78;;;-141.38;66.91
6853;BME280;3465;42.144;24.722;2023-11-19T02:54:09;48961.09;;;-141.38;67.09
6853;BME280;3465;42.144;24.722;2023-11-19T02:56:35;48957.19;;;-141.38;67.49
6853;BME280;3465;42.144;24.722;2023-11-19T02:59:02;48953.28;;;-141.38;67.27
6853;BME280;3465;42.144;24.722;2023-11-19T03:01:40;48945.47;;;-141.38;67.17
6853;BME280;3465;42.144;24.722;2023-11-19T03:04:09;48963.03;;;-141.38;66.65
6853;BME280;3465;42.144;24.722;2023-11-19T03:06:37;48920.09;;;-141.38;66.81
6853;BME280;3465;42.144;24.722;2023-11-19T03:09:03;48949.38;;;-141.38;66.90
6853;BME280;3465;42.144;24.722;2023-11-19T03:11:33;48980.59;;;-141.38;67.17
6853;BME280;3465;42.144;24.722;2023-11-19T03:13:59;48964.97;;;-141.38;67.13
6853;BME280;3465;42.144;24.722;2023-11-19T03:16:24;48929.84;;;-141.38;67.18
6853;BME280;3465;42.144;24.722;2023-11-19T03:18:49;48947.41;;;-141.38;67.53
6853;BME280;3465;42.144;24.722;2023-11-19T03:21:15;48922.03;;;-141.38;67.96
6853;BME280;3465;42.144;24.722;2023-11-19T03:23:40;48976.69;;;-141.38;68.17
6853;BME280;3465;42.144;24.722;2023-11-19T03:26:06;48980.59;;;-141.38;68.71
6853;BME280;3465;42.144;24.722;2023-11-19T03:28:33;48964.97;;;-141.38;68.72
6853;BME280;3465;42.144;24.722;2023-11-19T03:30:58;48972.78;;;-141.38;68.91
6853;BME280;3465;42.144;24.722;2023-11-19T03:33:24;48968.88;;;-141.38;69.10
6853;BME280;3465;42.144;24.722;2023-11-19T03:35:51;48980.59;;;-141.38;69.07
6853;BME280;3465;42.144;24.722;2023-11-19T03:38:17;48994.25;;;-141.38;69.05
6853;BME280;3465;42.144;24.722;2023-11-19T03:40:42;48992.31;;;-141.38;68.96
6853;BME280;3465;42.144;24.722;2023-11-19T03:43:08;48972.78;;;-141.38;68.85
6853;BME280;3465;42.144;24.722;2023-11-19T03:45:34;48984.50;;;-141.38;69.24
6853;BME280;3465;42.144;24.722;2023-11-19T03:48:01;48968.88;;;-141.38;69.13
6853;BME280;3465;42.144;24.722;2023-11-19T03:50:27;48974.75;;;-141.38;68.63
6853;BME280;3465;42.144;24.722;2023-11-19T03:52:52;48984.50;;;-141.38;68.85
6853;BME280;3465;42.144;24.722;2023-11-19T03:55:18;48974.75;;;-141.38;68.62
6853;BME280;3465;42.144;24.722;2023-11-19T03:57:43;48990.34;;;-141.38;67.80
6853;BME280;3465;42.144;24.722;2023-11-19T04:00:09;48980.59;;;-141.38;67.35
6853;BME280;3465;42.144;24.722;2023-11-19T04:02:36;48937.66;;;-141.38;66.90
6853;BME280;3465;42.144;24.722;2023-11-19T04:05:02;48963.03;;;-141.38;66.82
6853;BME280;3465;42.144;24.722;2023-11-19T04:07:29;48961.09;;;-141.38;66.79
6853;BME280;3465;42.144;24.722;2023-11-19T04:09:54;49037.19;;;-141.38;67.02
6853;BME280;3465;42.144;24.722;2023-11-19T04:12:20;48953.28;;;-141.38;66.64
6853;BME280;3465;42.144;24.722;2023-11-19T04:14:45;48937.66;;;-141.38;66.11
6853;BME280;3465;42.144;24.722;2023-11-19T04:17:10;48953.28;;;-141.38;65.87
6853;BME280;3465;42.144;24.722;2023-11-19T04:19:36;48933.75;;;-141.38;65.51
6853;BME280;3465;42.144;24.722;2023-11-19T04:22:01;48947.41;;;-141.38;65.68
6853;BME280;3465;42.144;24.722;2023-11-19T04:24:27;48943.50;;;-141.38;65.81
6853;BME280;3465;42.144;24.722;2023-11-19T04:26:53;48941.56;;;-141.38;65.46
6853;BME280;3465;42.144;24.722;2023-11-19T04:29:18;48941.56;;;-141.38;65.71
6853;BME280;3465;42.144;24.722;2023-11-19T04:31:45;48939.63;;;-141.38;65.87
6853;BME280;3465;42.144;24.722;2023-11-19T04:34:11;48933.75;;;-141.38;66.05
6853;BME280;3465;42.144;24.722;2023-11-19T04:36:36;48933.75;;;-141.38;66.67
6853;BME280;3465;42.144;24.722;2023-11-19T04:39:03;48931.81;;;-141.38;66.89
6853;BME280;3465;42.144;24.722;2023-11-19T04:41:45;48943.50;;;-141.38;67.90
6853;BME280;3465;42.144;24.722;2023-11-19T04:44:11;48931.81;;;-141.38;68.02
6853;BME280;3465;42.144;24.722;2023-11-19T04:46:37;48976.69;;;-141.38;68.22
6853;BME280;3465;42.144;24.722;2023-11-19T04:49:02;48935.72;;;-141.38;68.40
6853;BME280;3465;42.144;24.722;2023-11-19T04:51:28;48941.56;;;-141.38;68.52
6853;BME280;3465;42.144;24.722;2023-11-19T04:53:53;48972.78;;;-141.38;68.54
6853;BME280;3465;42.144;24.722;2023-11-19T04:56:18;48951.31;;;-141.38;68.53
6853;BME280;3465;42.144;24.722;2023-11-19T04:58:45;48964.97;;;-141.38;68.27
6853;BME280;3465;42.144;24.722;2023-11-19T05:01:14;48935.72;;;-141.38;68.34
6853;BME280;3465;42.144;24.722;2023-11-19T05:03:43;48933.75;;;-141.38;68.48
6853;BME280;3465;42.144;24.722;2023-11-19T05:06:08;48937.66;;;-141.38;68.24
6853;BME280;3465;42.144;24.722;2023-11-19T05:08:34;48949.38;;;-141.38;68.58
6853;BME280;3465;42.144;24.722;2023-11-19T05:11:00;48961.09;;;-141.38;68.52
6853;BME280;3465;42.144;24.722;2023-11-19T05:13:26;49009.88;;;-141.38;68.62
6853;BME280;3465;42.144;24.722;2023-11-19T05:15:51;48974.75;;;-141.38;68.69
6853;BME280;3465;42.144;24.722;2023-11-19T05:18:17;48976.69;;;-141.38;68.51
6853;BME280;3465;42.144;24.722;2023-11-19T05:20:42;48964.97;;;-141.38;68.77
6853;BME280;3465;42.144;24.722;2023-11-19T05:23:08;48943.50;;;-141.38;69.04
6853;BME280;3465;42.144;24.722;2023-11-19T05:25:33;48961.09;;;-141.38;69.02
6853;BME280;3465;42.144;24.722;2023-11-19T05:27:59;48961.09;;;-141.38;68.96
6853;BME280;3465;42.144;24.722;2023-11-19T05:30:24;48935.72;;;-141.38;69.04
6853;BME280;3465;42.144;24.722;2023-11-19T05:32:50;48953.28;;;-141.38;69.21
6853;BME280;3465;42.144;24.722;2023-11-19T05:35:15;48980.59;;;-141.38;69.44
6853;BME280;3465;42.144;24.722;2023-11-19T05:37:41;48935.72;;;-141.38;69.31
6853;BME280;3465;42.144;24.722;2023-11-19T05:40:07;48972.78;;;-141.38;69.44
6853;BME280;3465;42.144;24.722;2023-11-19T05:42:40;48933.75;;;-141.38;68.95
6853;BME280;3465;42.144;24.722;2023-11-19T05:45:05;48966.94;;;-141.38;69.17
6853;BME280;3465;42.144;24.722;2023-11-19T05:47:33;48945.47;;;-141.38;68.93
6853;BME280;3465;42.144;24.722;2023-11-19T05:49:59;48963.03;;;-141.38;68.58
6853;BME280;3465;42.144;24.722;2023-11-19T05:52:24;48951.31;;;-141.38;68.37
6853;BME280;3465;42.144;24.722;2023-11-19T05:54:50;48945.47;;;-141.38;68.36
6853;BME280;3465;42.144;24.722;2023-11-19T05:57:17;48961.09;;;-141.38;67.92
6853;BME280;3465;42.144;24.722;2023-11-19T05:59:50;48953.28;;;-141.38;67.45
6853;BME280;3465;42.144;24.722;2023-11-19T06:02:16;48918.13;;;-141.38;67.63
6853;BME280;3465;42.144;24.722;2023-11-19T06:04:41;48949.38;;;-141.38;67.35
6853;BME280;3465;42.144;24.722;2023-11-19T06:07:09;48961.09;;;-141.38;67.37
6853;BME280;3465;42.144;24.722;2023-11-19T06:09:35;48949.38;;;-141.38;67.32
6853;BME280;3465;42.144;24.722;2023-11-19T06:12:00;48961.09;;;-141.38;67.21
6853;BME280;3465;42.144;24.722;2023-11-19T06:14:27;48939.63;;;-141.38;67.14
6853;BME280;3465;42.144;24.722;2023-11-19T06:16:52;48941.56;;;-141.38;67.22
6853;BME280;3465;42.144;24.722;2023-11-19T06:19:18;48945.47;;;-141.38;67.37
6853;BME280;3465;42.144;24.722;2023-11-19T06:21:44;49011.81;;;-141.38;66.97
6853;BME280;3465;42.144;24.722;2023-11-19T06:24:09;48937.66;;;-141.38;66.91
6853;BME280;3465;42.144;24.722;2023-11-19T06:26:34;48953.28;;;-141.38;66.82
6853;BME280;3465;42.144;24.722;2023-11-19T06:29:00;48933.75;;;-141.38;66.53
6853;BME280;3465;42.144;24.722;2023-11-19T06:31:25;48898.63;;;-141.38;66.38
6853;BME280;3465;42.144;24.722;2023-11-19T06:33:51;48941.56;;;-141.38;65.94
6853;BME280;3465;42.144;24.722;2023-11-19T06:36:16;48947.41;;;-141.38;65.12
6853;BME280;3465;42.144;24.722;2023-11-19T06:38:42;48937.66;;;-141.38;63.87
6853;BME280;3465;42.144;24.722;2023-11-19T06:41:08;48953.28;;;-141.38;62.75
6853;BME280;3465;42.144;24.722;2023-11-19T06:43:37;48906.44;;;-141.38;61.43
6853;BME280;3465;42.144;24.722;2023-11-19T06:46:03;48924.00;;;-141.38;60.61
6853;BME280;3465;42.144;24.722;2023-11-19T06:48:34;48947.41;;;-141.38;59.26
6853;BME280;3465;42.144;24.722;2023-11-19T06:51:00;48922.03;;;-141.38;57.94
6853;BME280;3465;42.144;24.722;2023-11-19T06:53:25;48894.72;;;-141.38;57.28
6853;BME280;3465;42.144;24.722;2023-11-19T06:55:53;48918.13;;;-141.38;56.27
6853;BME280;3465;42.144;24.722;2023-11-19T06:58:19;48943.50;;;-141.38;55.33
6853;BME280;3465;42.144;24.722;2023-11-19T07:00:44;48904.47;;;-141.38;53.36
6853;BME280;3465;42.144;24.722;2023-11-19T07:03:11;48873.25;;;-141.38;51.43
6853;BME280;3465;42.144;24.722;2023-11-19T07:05:36;48922.03;;;-141.38;49.46
6853;BME280;3465;42.144;24.722;2023-11-19T07:08:05;48863.50;;;-141.38;48.84
6853;BME280;3465;42.144;24.722;2023-11-19T07:10:32;48857.63;;;-141.38;47.75
6853;BME280;3465;42.144;24.722;2023-11-19T07:12:59;48853.72;;;-141.38;46.89
6853;BME280;3465;42.144;24.722;2023-11-19T07:15:24;48871.28;;;-141.38;46.33
6853;BME280;3465;42.144;24.722;2023-11-19T07:17:49;48851.78;;;-141.38;43.89
6853;BME280;3465;42.144;24.722;2023-11-19T07:20:15;48814.69;;;-141.38;43.18
6853;BME280;3465;42.144;24.722;2023-11-19T07:22:43;48791.28;;;-141.38;41.23
6853;BME280;3465;42.144;24.722;2023-11-19T07:25:14;48777.59;;;-141.38;40.77
6853;BME280;3465;42.144;24.722;2023-11-19T07:27:40;48744.44;;;-141.38;40.07
6853;BME280;3465;42.144;24.722;2023-11-19T07:30:06;48658.56;;;-141.38;40.36
6853;BME280;3465;42.144;24.722;2023-11-19T07:32:33;48613.66;;;-141.38;42.34
6853;BME280;3465;42.144;24.722;2023-11-19T07:34:58;48568.78;;;-141.38;43.11
6853;BME280;3465;42.144;24.722;2023-11-19T07:37:24;48551.22;;;-141.38;43.99
6853;BME280;3465;42.144;24.722;2023-11-19T07:39:50;48551.22;;;-141.38;46.80
6853;BME280;3465;42.144;24.722;2023-11-19T07:42:15;48543.41;;;-141.38;47.18
6853;BME280;3465;42.144;24.722;2023-11-19T07:44:41;48574.63;;;-141.38;48.46
6853;BME280;3465;42.144;24.722;2023-11-19T07:47:07;48582.44;;;-141.38;48.83
6853;BME280;3465;42.144;24.722;2023-11-19T07:49:32;48551.22;;;-141.38;49.03
6853;BME280;3465;42.144;24.722;2023-11-19T07:51:58;48529.75;;;-141.38;48.67
6853;BME280;3465;42.144;24.722;2023-11-19T07:54:24;48545.34;;;-141.38;49.54
6853;BME280;3465;42.144;24.722;2023-11-19T07:56:50;48537.56;;;-141.38;50.10
6853;BME280;3465;42.144;24.722;2023-11-19T07:59:15;48537.56;;;-141.38;50.32
6853;BME280;3465;42.144;24.722;2023-11-19T08:01:41;48557.06;;;-141.38;51.30
6853;BME280;3465;42.144;24.722;2023-11-19T08:04:06;48504.38;;;-141.38;51.46
6853;BME280;3465;42.144;24.722;2023-11-19T08:06:32;48535.59;;;-141.38;51.32
6853;BME280;3465;42.144;24.722;2023-11-19T08:08:57;48559.03;;;-141.38;50.87
6853;BME280;3465;42.144;24.722;2023-11-19T08:11:23;48560.97;;;-141.38;51.83
6853;BME280;3465;42.144;24.722;2023-11-19T08:13:49;48551.22;;;-141.38;51.79
6853;BME280;3465;42.144;24.722;2023-11-19T08:16:14;48537.56;;;-141.38;52.15
6853;BME280;3465;42.144;24.722;2023-11-19T08:18:42;48543.41;;;-141.38;51.80
6853;BME280;3465;42.144;24.722;2023-11-19T08:21:08;48570.72;;;-141.38;51.38
6853;BME280;3465;42.144;24.722;2023-11-19T08:23:33;48560.97;;;-141.38;51.72
6853;BME280;3465;42.144;24.722;2023-11-19T08:25:59;48512.19;;;-141.38;52.12
6853;BME280;3465;42.144;24.722;2023-11-19T08:28:25;48551.22;;;-141.38;52.89
6853;BME280;3465;42.144;24.722;2023-11-19T08:30:50;48562.94;;;-141.38;52.85
6853;BME280;3465;42.144;24.722;2023-11-19T08:33:16;48547.31;;;-141.38;52.62
6853;BME280;3465;42.144;24.722;2023-11-19T08:35:43;48553.16;;;-141.38;52.56
6853;BME280;3465;42.144;24.722;2023-11-19T08:38:10;48531.69;;;-141.38;52.56
6853;BME280;3465;42.144;24.722;2023-11-19T08:40:35;48533.66;;;-141.38;53.07
6853;BME280;3465;42.144;24.722;2023-11-19T08:43:01;48547.31;;;-141.38;53.47
6853;BME280;3465;42.144;24.722;2023-11-19T08:45:26;48555.13;;;-141.38;53.60
6853;BME280;3465;42.144;24.722;2023-11-19T08:47:52;48559.03;;;-141.38;53.63
6853;BME280;3465;42.144;24.722;2023-11-19T08:50:17;48523.91;;;-141.38;53.41
6853;BME280;3465;42.144;24.722;2023-11-19T08:52:42;48521.94;;;-141.38;52.88
6853;BME280;3465;42.144;24.722;2023-11-19T08:55:08;48553.16;;;-141.38;52.62
6853;BME280;3465;42.144;24.722;2023-11-19T08:57:35;48521.94;;;-141.38;53.13
6853;BME280;3465;42.144;24.722;2023-11-19T09:00:00;48521.94;;;-141.38;53.41
6853;BME280;3465;42.144;24.722;2023-11-19T09:02:26;48545.34;;;-141.38;53.01
6853;BME280;3465;42.144;24.722;2023-11-19T09:04:51;48553.16;;;-141.38;53.05
6853;BME280;3465;42.144;24.722;2023-11-19T09:07:17;48531.69;;;-141.38;52.10
6853;BME280;3465;42.144;24.722;2023-11-19T09:09:42;48516.09;;;-141.38;51.26
6853;BME280;3465;42.144;24.722;2023-11-19T09:12:08;48560.97;;;-141.38;51.72
6853;BME280;3465;42.144;24.722;2023-11-19T09:14:33;48543.41;;;-141.38;52.69
6853;BME280;3465;42.144;24.722;2023-11-19T09:16:59;48551.22;;;-141.38;52.07
6853;BME280;3465;42.144;24.722;2023-11-19T09:19:25;48559.03;;;-141.38;52.07
6853;BME280;3465;42.144;24.722;2023-11-19T09:21:52;48564.88;;;-141.38;51.35
6853;BME280;3465;42.144;24.722;2023-11-19T09:24:18;48549.25;;;-141.38;50.85
6853;BME280;3465;42.144;24.722;2023-11-19T09:26:43;48572.69;;;-141.38;51.13
6853;BME280;3465;42.144;24.722;2023-11-19T09:29:09;48543.41;;;-141.38;50.42
6853;BME280;3465;42.144;24.722;2023-11-19T09:31:34;48570.72;;;-141.38;49.72
6853;BME280;3465;42.144;24.722;2023-11-19T09:34:00;48535.59;;;-141.38;50.43
6853;BME280;3465;42.144;24.722;2023-11-19T09:36:26;48531.69;;;-141.38;50.01
6853;BME280;3465;42.144;24.722;2023-11-19T09:38:51;48543.41;;;-141.38;49.90
6853;BME280;3465;42.144;24.722;2023-11-19T09:41:17;48543.41;;;-141.38;49.83
6853;BME280;3465;42.144;24.722;2023-11-19T09:43:45;48562.94;;;-141.38;49.88
6853;BME280;3465;42.144;24.722;2023-11-19T09:46:11;48547.31;;;-141.38;49.32
6853;BME280;3465;42.144;24.722;2023-11-19T09:48:38;48533.66;;;-141.38;49.65
6853;BME280;3465;42.144;24.722;2023-11-19T09:51:09;48523.91;;;-141.38;49.09
6853;BME280;3465;42.144;24.722;2023-11-19T09:53:36;48562.94;;;-141.38;49.32
6853;BME280;3465;42.144;24.722;2023-11-19T09:56:05;48520.00;;;-141.38;49.40
6853;BME280;3465;42.144;24.722;2023-11-19T09:58:32;48551.22;;;-141.38;49.16
6853;BME280;3465;42.144;24.722;2023-11-19T10:00:58;48543.41;;;-141.38;49.09
6853;BME280;3465;42.144;24.722;2023-11-19T10:03:26;48523.91;;;-141.38;49.33
6853;BME280;3465;42.144;24.722;2023-11-19T10:05:53;48533.66;;;-141.38;49.21
6853;BME280;3465;42.144;24.722;2023-11-19T10:08:20;48543.41;;;-141.38;48.78
6853;BME280;3465;42.144;24.722;2023-11-19T10:10:45;48611.72;;;-141.38;48.89
6853;BME280;3465;42.144;24.722;2023-11-19T10:13:11;48570.72;;;-141.38;48.84
6853;BME280;3465;42.144;24.722;2023-11-19T10:15:37;48553.16;;;-141.38;48.63
6853;BME280;3465;42.144;24.722;2023-11-19T10:18:03;48531.69;;;-141.38;48.72
6853;BME280;3465;42.144;24.722;2023-11-19T10:20:40;48547.31;;;-141.38;48.75
6853;BME280;3465;42.144;24.722;2023-11-19T10:23:06;48557.06;;;-141.38;48.33
6853;BME280;3465;42.144;24.722;2023-11-19T10:25:32;48527.78;;;-141.38;48.24
6853;BME280;3465;42.144;24.722;2023-11-19T10:27:58;48543.41;;;-141.38;47.69
6853;BME280;3465;42.144;24.722;2023-11-19T10:30:28;48560.97;;;-141.38;45.78
6853;BME280;3465;42.144;24.722;2023-11-19T10:33:13;48588.28;;;-141.38;42.79
6853;BME280;3465;42.144;24.722;2023-11-19T10:35:57;48590.25;;;-141.38;40.53
6853;BME280;3465;42.144;24.722;2023-11-19T10:38:23;48603.91;;;-141.38;40.05
6853;BME280;3465;42.144;24.722;2023-11-19T10:40:50;48590.25;;;-141.38;38.90
6853;BME280;3465;42.144;24.722;2023-11-19T10:43:16;48568.78;;;-141.38;38.60
6853;BME280;3465;42.144;24.722;2023-11-19T10:45:43;48586.34;;;-141.38;37.21
6853;BME280;3465;42.144;24.722;2023-11-19T10:48:08;48584.41;;;-141.38;37.13
6853;BME280;3465;42.144;24.722;2023-11-19T10:50:36;48551.22;;;-141.38;36.20
6853;BME280;3465;42.144;24.722;2023-11-19T10:53:02;48572.69;;;-141.38;35.49
6853;BME280;3465;42.144;24.722;2023-11-19T10:55:32;48566.81;;;-141.38;35.01
6853;BME280;3465;42.144;24.722;2023-11-19T10:58:04;48527.78;;;-141.38;35.44
6853;BME280;3465;42.144;24.722;2023-11-19T11:03:15;48508.28;;;-141.38;35.60
6853;BME280;3465;42.144;24.722;2023-11-19T11:05:41;48457.53;;;-141.38;36.62
6853;BME280;3465;42.144;24.722;2023-11-19T11:08:07;48473.16;;;-141.38;37.83
6853;BME280;3465;42.144;24.722;2023-11-19T11:10:39;48422.41;;;-141.38;38.45
6853;BME280;3465;42.144;24.722;2023-11-19T11:13:07;48410.69;;;-141.38;39.64
6853;BME280;3465;42.144;24.722;2023-11-19T11:15:34;48402.91;;;-141.38;41.02
6853;BME280;3465;42.144;24.722;2023-11-19T11:18:01;48406.78;;;-141.38;41.20
6853;BME280;3465;42.144;24.722;2023-11-19T11:20:29;48399.00;;;-141.38;41.73
6853;BME280;3465;42.144;24.722;2023-11-19T11:25:57;48395.09;;;-141.38;42.75
6853;BME280;3465;42.144;24.722;2023-11-19T11:39:46;48350.19;;;-141.38;43.80
6853;BME280;3465;42.144;24.722;2023-11-19T11:45:10;48373.63;;;-141.38;44.62
6853;BME280;3465;42.144;24.722;2023-11-19T11:50:09;48359.97;;;-141.38;44.38
6853;BME280;3465;42.144;24.722;2023-11-19T11:55:26;48379.47;;;-141.38;43.95
6853;BME280;3465;42.144;24.722;2023-11-19T11:57:53;48350.19;;;-141.38;43.86
6853;BME280;3465;42.144;24.722;2023-11-19T12:00:38;48397.03;;;-141.38;44.01
6853;BME280;3465;42.144;24.722;2023-11-19T12:03:05;48377.53;;;-141.38;43.65
6853;BME280;3465;42.144;24.722;2023-11-19T12:05:32;48379.47;;;-141.38;43.65
6853;BME280;3465;42.144;24.722;2023-11-19T12:08:04;48406.78;;;-141.38;43.46
6853;BME280;3465;42.144;24.722;2023-11-19T12:10:45;48385.34;;;-141.38;43.71
6853;BME280;3465;42.144;24.722;2023-11-19T12:13:12;48350.19;;;-141.38;43.68
6853;BME280;3465;42.144;24.722;2023-11-19T12:18:23;48367.78;;;-141.38;44.65
6853;BME280;3465;42.144;24.722;2023-11-19T12:20:49;48410.69;;;-141.38;48.55
6853;BME280;3465;42.144;24.722;2023-11-19T12:23:15;48397.03;;;-141.38;45.61
6853;BME280;3465;42.144;24.722;2023-11-19T12:25:41;48371.66;;;-141.38;45.64
6853;BME280;3465;42.144;24.722;2023-11-19T12:28:12;48367.78;;;-141.38;46.15
6853;BME280;3465;42.144;24.722;2023-11-19T12:30:38;48395.09;;;-141.38;46.21
6853;BME280;3465;42.144;24.722;2023-11-19T12:33:08;48373.63;;;-141.38;46.27
6853;BME280;3465;42.144;24.722;2023-11-19T12:35:39;48369.72;;;-141.38;46.32
6853;BME280;3465;42.144;24.722;2023-11-19T12:38:05;48383.38;;;-141.38;46.30
6853;BME280;3465;42.144;24.722;2023-11-19T12:40:30;48395.09;;;-141.38;46.19
6853;BME280;3465;42.144;24.722;2023-11-19T12:42:55;48391.19;;;-141.38;46.18
6853;BME280;3465;42.144;24.722;2023-11-19T12:45:22;48389.22;;;-141.38;46.36
6853;BME280;3465;42.144;24.722;2023-11-19T12:47:49;48379.47;;;-141.38;46.32
6853;BME280;3465;42.144;24.722;2023-11-19T12:50:16;48399.00;;;-141.38;46.37
6853;BME280;3465;42.144;24.722;2023-11-19T12:52:58;48391.19;;;-141.38;46.24
6853;BME280;3465;42.144;24.722;2023-11-19T12:55:30;48391.19;;;-141.38;46.26
6853;BME280;3465;42.144;24.722;2023-11-19T12:57:57;48363.88;;;-141.38;46.04
6853;BME280;3465;42.144;24.722;2023-11-19T13:00:25;48365.81;;;-141.38;46.38
6853;BME280;3465;42.144;24.722;2023-11-19T13:02:56;48350.19;;;-141.38;46.59
6853;BME280;3465;42.144;24.722;2023-11-19T13:08:08;48354.09;;;-141.38;46.61
6853;BME280;3465;42.144;24.722;2023-11-19T13:13:14;48344.34;;;-141.38;46.92
6853;BME280;3465;42.144;24.722;2023-11-19T13:15:39;48375.56;;;-141.38;47.49
6853;BME280;3465;42.144;24.722;2023-11-19T13:18:05;48385.34;;;-141.38;47.42
6853;BME280;3465;42.144;24.722;2023-11-19T13:20:32;48367.78;;;-141.38;47.05